»·PEaware :: N575CB KLAX-KSNA

N575CB :: KLAX-KSNA

FLIGHT INFORMATION

Flight Status: Arrived
Operator: Privately registered:
United States
More flights under this callsign
Pilot: Sjoerd Jan T. (24821)
Aircraft: CESSNA 172 SKYHAWK
(C172)
More flights by this aircraft type
Origin: KLAX Los Angeles Intl
United States
Destination: KSNA John Wayne-Orange Co
United States
More flights between these airports :: More routes between these airports
Route: SLI8 SLI
File this flight plan on PilotEdge
Remarks: TEC route LAXP55
Altitude:
(Current/Filed)
4,000ft
Speed:
(Current/Filed)
110kts
Departed: 12-Jan-21 04:37 PM
Arrived: 12-Jan-21 05:24 PM
Distance/Time
Traveled:
31nm/0:47
Distance/Time
To Go:
Arrived

Flight Plot

Page will automatically refresh every two minutes.

Flight plan parsing failed; only flown route is shown


Map Options




Map Legend


Flown Route
Filed Route
Departure Airport
Arrival Airport
Navaid (VOR, NDB)
Fix

Horizontal Profiles

Position Reports

Time Latitude Longitude Heading Altitude Ground
Speed
12-Jan-21 16:13 33.933710 -118.398752 171 114ft 0kts
12-Jan-21 16:14 33.933710 -118.398752 171 114ft 0kts
12-Jan-21 16:15 33.933710 -118.398752 171 114ft 0kts
12-Jan-21 16:16 33.933710 -118.398752 171 114ft 0kts
12-Jan-21 16:17 33.933710 -118.398752 171 114ft 0kts
12-Jan-21 16:18 33.933710 -118.398752 171 114ft 0kts
12-Jan-21 16:19 33.933710 -118.398752 171 114ft 0kts
12-Jan-21 16:20 33.933710 -118.398752 171 114ft 0kts
12-Jan-21 16:21 33.933710 -118.398752 171 114ft 0kts
12-Jan-21 16:22 33.933710 -118.398752 171 114ft 0kts
12-Jan-21 16:23 33.933710 -118.398752 171 114ft 0kts
12-Jan-21 16:24 33.933710 -118.398752 171 114ft 0kts
12-Jan-21 16:25 33.933710 -118.398752 171 114ft 0kts
12-Jan-21 16:26 33.933710 -118.398752 171 114ft 0kts
12-Jan-21 16:27 33.933710 -118.398752 171 114ft 0kts
12-Jan-21 16:28 33.933710 -118.398752 171 114ft 0kts
12-Jan-21 16:29 33.934453 -118.398047 42 113ft 9kts
12-Jan-21 16:30 33.934930 -118.394416 81 108ft 14kts
12-Jan-21 16:31 33.935429 -118.389627 83 104ft 16kts
12-Jan-21 16:32 33.935929 -118.384607 83 101ft 15kts
12-Jan-21 16:33 33.936506 -118.382761 3 100ft 0kts
12-Jan-21 16:34 33.936506 -118.382761 3 100ft 0kts
12-Jan-21 16:35 33.937088 -118.382925 323 100ft 9kts
12-Jan-21 16:36 33.934561 -118.405552 258 284ft 103kts
12-Jan-21 16:37 33.930988 -118.441795 261 683ft 112kts
12-Jan-21 16:38 33.927303 -118.479170 261 1075ft 112kts
12-Jan-21 16:39 33.923636 -118.516504 261 1466ft 111kts
12-Jan-21 16:40 33.920018 -118.553547 261 1857ft 111kts
12-Jan-21 16:41 33.916713 -118.587581 261 2218ft 110kts
12-Jan-21 16:42 33.900050 -118.600283 152 2609ft 105kts
12-Jan-21 16:43 33.874619 -118.584049 150 2991ft 107kts
12-Jan-21 16:44 33.848399 -118.567174 150 3382ft 106kts
12-Jan-21 16:45 33.822261 -118.550367 150 3721ft 110kts
12-Jan-21 16:46 33.793821 -118.530824 145 3735ft 122kts
12-Jan-21 16:47 33.793558 -118.497700 62 3732ft 109kts
12-Jan-21 16:48 33.801301 -118.463253 82 3732ft 105kts
12-Jan-21 16:49 33.802103 -118.428187 91 3733ft 104kts
12-Jan-21 16:50 33.800570 -118.393251 92 3734ft 104kts
12-Jan-21 16:51 33.798862 -118.358338 92 3734ft 104kts
12-Jan-21 16:52 33.797144 -118.323565 92 3734ft 104kts
12-Jan-21 16:53 33.795420 -118.288854 92 3734ft 104kts
12-Jan-21 16:54 33.793554 -118.250499 92 3734ft 121kts
12-Jan-21 16:55 33.791498 -118.210150 92 3733ft 122kts
12-Jan-21 16:56 33.789444 -118.169625 92 3733ft 122kts
12-Jan-21 16:57 33.787366 -118.128853 92 3733ft 122kts
12-Jan-21 16:58 33.785274 -118.088079 92 3733ft 122kts
12-Jan-21 16:59 33.787270 -118.047631 67 3736ft 122kts
12-Jan-21 17:00 33.801509 -118.010331 63 3733ft 123kts
12-Jan-21 17:01 33.816238 -117.973656 62 3733ft 120kts
12-Jan-21 17:02 33.830788 -117.937469 62 3733ft 120kts
12-Jan-21 17:03 33.845283 -117.901373 62 3733ft 119kts
12-Jan-21 17:04 33.859814 -117.865153 62 3733ft 119kts
12-Jan-21 17:05 33.873784 -117.830185 62 3732ft 110kts
12-Jan-21 17:06 33.886836 -117.797644 62 3733ft 106kts
12-Jan-21 17:07 33.899714 -117.765472 62 3733ft 106kts
12-Jan-21 17:08 33.912467 -117.733564 62 3734ft 106kts
12-Jan-21 17:09 33.931794 -117.712036 357 3737ft 105kts
12-Jan-21 17:10 33.960936 -117.711548 29 3723ft 106kts
12-Jan-21 17:11 33.954703 -117.686034 181 3616ft 115kts
12-Jan-21 17:12 33.926544 -117.706656 211 3228ft 105kts
12-Jan-21 17:13 33.903430 -117.722862 207 3236ft 98kts
12-Jan-21 17:14 33.878242 -117.739370 206 3234ft 105kts
12-Jan-21 17:16 33.852086 -117.756210 206 3234ft 107kts
12-Jan-21 17:17 33.825669 -117.773129 207 3196ft 109kts
12-Jan-21 17:18 33.802307 -117.788097 206 2776ft 94kts
12-Jan-21 17:19 33.779050 -117.802937 206 2258ft 94kts
12-Jan-21 17:20 33.755721 -117.817819 206 1736ft 95kts
12-Jan-21 17:21 33.732191 -117.832819 206 1211ft 96kts
12-Jan-21 17:22 33.710489 -117.846646 206 732ft 96kts
12-Jan-21 17:23 33.689297 -117.860148 206 268ft 89kts
12-Jan-21 17:24 33.676035 -117.868619 206 60ft 19kts
12-Jan-21 17:25 33.674489 -117.868506 157 60ft 0kts
12-Jan-21 17:26 33.673673 -117.867074 135 60ft 10kts
12-Jan-21 17:27 33.672742 -117.866445 242 60ft 4kts
12-Jan-21 17:28 33.672415 -117.866616 209 60ft 0kts

Navigation Log

Ident Type
Flight plan parsing failed, navigation log unavailable